• Join FlightAware (Why Join?)
  • Login
  • US Flag 
02:31PM EDT


 

Airport Tracker/Info


-or-


 

Live Flight TrackerFlight Track Log ✈ C-FBNC ✈ 15-Oct-2013 ✈ KBGM - CYRO

Flight Track Log - Related Links

Times and Time Zones

All times are in EDT time to prevent confusion due to time zone crossing. See the C-FBNC flight status page for this flight to view local times or setup timezone preferences in your user account.

Time Position Orientation Groundspeed Altitude Reporting Facility
EDT Latitude Longitude Course Direction KTS MPH feet Rate Location/Type
10:48AM 42.4064 -75.9603 18° North  Level Estimated
10:49AM 42.4430 -75.9393 23° Northeast  Level FlightAware Approximate
10:50AM 42.4796 -75.9184 23° Northeast  Level FlightAware Approximate
10:51AM 42.5161 -75.8973 23° Northeast  Level FlightAware Approximate
10:52AM 42.5527 -75.8763 23° Northeast  Level FlightAware Approximate
10:52AM 42.5661 -75.9164 23° Northeast 127 146 3,500  Level Boston Center
10:53AM 42.5892 -75.8552 23° Northeast  Level FlightAware Approximate
10:53AM 42.5997 -75.9069 12° North 128 147 3,500  Level Boston Center
10:54AM 42.6258 -75.8342 23° Northeast  Level FlightAware Approximate
10:54AM 42.6369 -75.9119 354° North 127 146 3,500  Level Boston Center
10:55AM 42.6623 -75.8130 23° Northeast  Level FlightAware Approximate
10:55AM 42.6664 -75.9106 North 128 147 3,500  Level Boston Center
10:56AM 42.6989 -75.7919 23° Northeast  Level FlightAware Approximate
10:56AM 42.7000 -75.9042 North 127 146 3,500  Level Boston Center
10:57AM 42.7354 -75.7708 23° Northeast  Level FlightAware Approximate
10:57AM 42.7481 -75.8983 North 136 157 3,500  Level Boston Center
10:58AM 42.7814 -75.8944 North 126 145 3,500 -60 Level Boston Center
10:59AM 42.8131 -75.8850 12° North 126 145 3,400  Descending Boston Center
11:00AM 42.8528 -75.8786 North 125 144 3,500  Climbing Boston Center
11:01AM 42.8886 -75.8694 11° North 124 143 3,500  Level Boston Center
11:02AM 42.9222 -75.8628 North 124 143 3,600  Climbing Boston Center
11:03AM 42.9539 -75.8503 16° North 123 142 3,600  Level Boston Center
11:04AM 42.9872 -75.8464 North 125 144 3,600  Level Boston Center
11:05AM 43.0183 -75.8481 358° North 126 145 3,600  Level Boston Center
11:06AM 43.0539 -75.8472 North 125 144 3,600  Level Boston Center
11:07AM 43.0933 -75.8494 358° North 124 143 3,600  Level Boston Center
11:08AM 43.1286 -75.8600 348° North 127 146 3,700  Climbing Boston Center
11:09AM 43.1636 -75.8733 344° North 124 143 3,700  Level Boston Center
11:10AM 43.1969 -75.8781 354° North 123 142 3,700 -60 Level Boston Center
11:11AM 43.2319 -75.8858 351° North 126 145 3,600  Descending Boston Center
11:12AM 43.2692 -75.8992 345° North 127 146 3,700  Climbing Boston Center
11:13AM 43.3044 -75.9042 354° North 125 144 3,600 -60 Descending Boston Center
11:14AM 43.3397 -75.9089 354° North 127 146 3,600  Level Boston Center
11:15AM 43.3750 -75.9167 351° North 125 144 3,600  Level Boston Center
11:16AM 43.4078 -75.9300 344° North 127 146 3,600 -60 Level Boston Center
11:17AM 43.4450 -75.9436 345° North 127 146 3,500  Descending Boston Center
11:18AM 43.4803 -75.9486 354° North 126 145 3,600  Climbing Boston Center
11:19AM 43.5075 -75.9472 North 124 143 3,600  Level Boston Center
11:20AM 43.5331 -75.9314 24° Northeast 125 144 3,600  Level Boston Center
11:21AM 43.5661 -75.9361 354° North 127 146 3,600 -60 Level Boston Center
11:22AM 43.6056 -75.9414 354° North 129 148 3,500  Descending Boston Center
11:23AM 43.6392 -75.9319 11° North 125 144 3,600  Climbing Boston Center
11:24AM 43.6708 -75.9250 North 124 143 3,600 -60 Level Boston Center
11:25AM 43.7086 -75.9158 10° North 128 147 3,500 -60 Descending Boston Center
11:26AM 43.7442 -75.9119 North 131 151 3,500  Level Boston Center
11:27AM 43.7797 -75.9083 North 129 148 3,500  Level Boston Center
11:28AM 43.8175 -75.8992 10° North 130 150 3,500  Level Boston Center
11:29AM 43.8511 -75.8894 12° North 127 146 3,500  Level Boston Center
11:30AM 43.8867 -75.8886 North 127 146 3,500  Level Boston Center
11:31AM 43.9242 -75.8822 North 128 147 3,600  Climbing Boston Center
11:32AM 43.9600 -75.8728 11° North 130 150 3,500  Descending Boston Center
11:33AM 43.9956 -75.8631 11° North 131 151 3,600  Climbing Boston Center
11:34AM 44.0311 -75.8594 North 131 151 3,600  Level Boston Center
11:35AM 44.0686 -75.8672 352° North 129 148 3,600 -60 Level Boston Center
11:36AM 44.1039 -75.8694 357° North 131 151 3,500 -120 Descending Boston Center
11:37AM 44.1414 -75.8686 North 129 148 3,400 -60 Descending Boston Center
11:38AM 44.1789 -75.8708 358° North 129 148 3,400  Level Boston Center
11:39AM 44.2119 -75.8786 350° North 128 147 3,400  Level Boston Center
11:40AM 44.2494 -75.8836 355° North 130 150 3,500 -240 Climbing Boston Center
11:41AM 44.2847 -75.8828 North 129 148 3,000 -360 Descending Boston Center
11:42AM 44.3203 -75.8819 North 127 146 2,800 -360 Descending Boston Center
11:43AM 44.3578 -75.8839 358° North 128 147 2,300 -600 Descending Boston Center
11:44AM 44.3908 -75.8889 354° North 133 153 1,700 -120 Descending Boston Center
11:46AM 44.4378 -75.8371 38° Northeast  Level FlightAware Approximate
11:49AM 44.5500 -75.9000 North 120 138 1,600  Level Montreal Center
11:50AM 44.5833 -75.9000 360° North 120 138 1,700  Climbing Montreal Center
11:51AM 44.6167 -75.9000 360° North 120 138 1,700  Level Montreal Center
11:52AM 44.6500 -75.9000 360° North 120 138 1,800 60 Climbing Montreal Center
11:53AM 44.7056 -75.7108 North  Level FlightAware Approximate
11:53AM 44.6833 -75.9000 360° North 120 138 1,900  Level Montreal Center
11:54AM 44.7455 -75.7025 North  Level FlightAware Approximate
11:54AM 44.7167 -75.9167 340° North 120 138 1,600  Level Montreal Center
11:55AM 44.7853 -75.6942 North  Level FlightAware Approximate
11:55AM 44.7500 -75.9167 360° North 120 138 1,300  Level Montreal Center
11:56AM 44.7833 -75.9500 325° Northwest 120 138 1,200 -60 Descending Montreal Center
11:57AM 44.8167 -75.9500 360° North 120 138 1,200  Level Montreal Center
11:58AM 44.8333 -75.9500 360° North 120 138 1,200  Level Montreal Center
11:59AM 44.8667 -75.9500 360° North 110 127 1,300 60 Climbing Montreal Center
12:00PM 44.9000 -75.9500 360° North 110 127 1,400  Climbing Montreal Center
12:01PM 44.9333 -75.9500 360° North 110 127 1,400  Level Montreal Center
12:02PM 44.9667 -75.9667 341° North 120 138 1,400  Level Montreal Center
12:03PM 45.0000 -75.9667 360° North 120 138 1,400  Level Montreal Center
12:04PM 45.0167 -76.0000 305° West 120 138 1,400  Level Montreal Center
12:05PM 45.0500 -76.0167 341° North 120 138 1,400 -60 Level Montreal Center
12:06PM 45.0833 -76.0333 341° North 120 138 1,300 -120 Descending Montreal Center
12:07PM 45.1167 -76.0667 325° Northwest 120 138 1,200 -120 Descending Montreal Center
12:08PM 45.1500 -76.0667 360° North 120 138 1,100 -60 Descending Montreal Center
12:09PM 45.1667 -76.0833 325° Northwest 120 138 1,100  Level Montreal Center
12:10PM 45.2000 -76.0833 360° North 110 127 1,100  Level Montreal Center
12:11PM 45.2333 -76.0833 360° North 110 127 1,200  Climbing Montreal Center
12:12PM 45.2667 -76.0667 19° North 110 127 1,200 -60 Level Montreal Center
12:13PM 45.3000 -76.0333 35° Northeast 110 127 1,100 -120 Descending Montreal Center
12:14PM 45.3167 -76.0167 35° Northeast 110 127 1,000  Descending Montreal Center
12:15PM 45.3500 -75.9667 47° Northeast 110 127 1,100 60 Climbing Montreal Center
12:16PM 45.3833 -75.9667 360° North 110 127 1,200  Climbing Montreal Center
12:17PM 45.4000 -75.9500 35° Northeast 110 127 1,200  Level Montreal Center
12:18PM 45.4167 -75.9000 65° Northeast 100 115 1,300  Climbing Montreal Center
12:19PM 45.4167 -75.8500 90° East 100 115 1,300  Level Montreal Center
12:20PM 45.4167 -75.8167 90° East 110 127 1,300  Level Montreal Center
12:21PM 45.4333 -75.7833 55° Northeast 110 127 1,300  Level Montreal Center
12:22PM 45.4667 -75.7500 35° Northeast 110 127 1,300  Level Montreal Center
12:23PM 45.4667 -75.7000 90° East 110 127 1,400 120 Climbing Montreal Center
12:24PM 45.4667 -75.6500 90° East 100 115 1,600  Climbing Montreal Center
12:25PM 45.4333 -75.6333 161° South 110 127 1,500 -240 Descending Montreal Center
12:26PM 45.4333 -75.6333 325° Northwest 80 92 1,200 -180 Descending Montreal Center
12:27PM 45.4667 -75.6500 341° North 70 81 1,200 -240 Level Montreal Center
12:28PM 45.4500 -75.6500 180° South 60 69 800 -420 Descending Montreal Center
12:30PM 45.4500 -75.6333 North  Level FlightAware Approximate
12:37PM 45.4603 -75.6461 North  Level Estimated
12:38PM 45.4603 -75.6461 North  Level Estimated
12:39PM 45.4603 -75.6461 North  Level Estimated
12:40PM 45.4603 -75.6461 North  Level Estimated